sensor_id;sensor_type;location;lat;lon;timestamp;P1;durP1;ratioP1;P2;durP2;ratioP2
18336;SDS011;9294;51.106;7.028;2023-05-07T00:02:24;1.30;;;1.20;;
18336;SDS011;9294;51.106;7.028;2023-05-07T00:04:51;1.40;;;1.40;;
18336;SDS011;9294;51.106;7.028;2023-05-07T00:07:18;1.00;;;1.00;;
18336;SDS011;9294;51.106;7.028;2023-05-07T00:09:45;1.20;;;1.20;;
18336;SDS011;9294;51.106;7.028;2023-05-07T00:12:11;1.00;;;1.00;;
18336;SDS011;9294;51.106;7.028;2023-05-07T00:14:38;1.15;;;1.15;;
18336;SDS011;9294;51.106;7.028;2023-05-07T00:17:05;1.02;;;1.02;;
18336;SDS011;9294;51.106;7.028;2023-05-07T00:19:33;1.00;;;1.00;;
18336;SDS011;9294;51.106;7.028;2023-05-07T00:22:00;1.00;;;1.00;;
18336;SDS011;9294;51.106;7.028;2023-05-07T00:24:27;1.48;;;1.38;;
18336;SDS011;9294;51.106;7.028;2023-05-07T00:26:54;1.05;;;1.05;;
18336;SDS011;9294;51.106;7.028;2023-05-07T00:29:23;1.27;;;1.20;;
18336;SDS011;9294;51.106;7.028;2023-05-07T00:31:49;1.05;;;1.05;;
18336;SDS011;9294;51.106;7.028;2023-05-07T00:34:16;1.45;;;1.10;;
18336;SDS011;9294;51.106;7.028;2023-05-07T00:36:44;1.23;;;1.20;;
18336;SDS011;9294;51.106;7.028;2023-05-07T00:39:11;1.10;;;1.10;;
18336;SDS011;9294;51.106;7.028;2023-05-07T00:41:38;0.90;;;0.90;;
18336;SDS011;9294;51.106;7.028;2023-05-07T00:44:04;1.10;;;1.10;;
18336;SDS011;9294;51.106;7.028;2023-05-07T00:46:31;1.10;;;1.10;;
18336;SDS011;9294;51.106;7.028;2023-05-07T00:48:59;1.17;;;1.17;;
18336;SDS011;9294;51.106;7.028;2023-05-07T00:51:26;1.15;;;1.15;;
18336;SDS011;9294;51.106;7.028;2023-05-07T00:53:54;0.93;;;0.93;;
18336;SDS011;9294;51.106;7.028;2023-05-07T00:56:21;0.93;;;0.93;;
18336;SDS011;9294;51.106;7.028;2023-05-07T00:58:48;1.13;;;1.13;;
18336;SDS011;9294;51.106;7.028;2023-05-07T01:01:15;1.10;;;1.10;;
18336;SDS011;9294;51.106;7.028;2023-05-07T01:03:42;1.30;;;1.30;;
18336;SDS011;9294;51.106;7.028;2023-05-07T01:06:09;0.80;;;0.80;;
18336;SDS011;9294;51.106;7.028;2023-05-07T01:08:37;1.10;;;1.10;;
18336;SDS011;9294;51.106;7.028;2023-05-07T01:11:06;0.98;;;0.80;;
18336;SDS011;9294;51.106;7.028;2023-05-07T01:13:33;1.05;;;1.05;;
18336;SDS011;9294;51.106;7.028;2023-05-07T01:16:01;0.85;;;0.85;;
18336;SDS011;9294;51.106;7.028;2023-05-07T01:18:28;1.40;;;1.30;;
18336;SDS011;9294;51.106;7.028;2023-05-07T01:20:55;1.15;;;1.15;;
18336;SDS011;9294;51.106;7.028;2023-05-07T01:23:25;0.93;;;0.93;;
18336;SDS011;9294;51.106;7.028;2023-05-07T01:25:53;1.20;;;1.20;;
18336;SDS011;9294;51.106;7.028;2023-05-07T01:28:20;1.10;;;1.10;;
18336;SDS011;9294;51.106;7.028;2023-05-07T01:30:49;1.08;;;1.08;;
18336;SDS011;9294;51.106;7.028;2023-05-07T01:33:18;1.13;;;1.13;;
18336;SDS011;9294;51.106;7.028;2023-05-07T01:35:48;1.00;;;1.00;;
18336;SDS011;9294;51.106;7.028;2023-05-07T01:38:17;1.10;;;1.10;;
18336;SDS011;9294;51.106;7.028;2023-05-07T01:40:46;1.20;;;1.20;;
18336;SDS011;9294;51.106;7.028;2023-05-07T01:43:13;1.00;;;1.00;;
18336;SDS011;9294;51.106;7.028;2023-05-07T01:45:40;0.80;;;0.80;;
18336;SDS011;9294;51.106;7.028;2023-05-07T01:48:07;1.02;;;0.95;;
18336;SDS011;9294;51.106;7.028;2023-05-07T01:50:36;1.10;;;1.10;;
18336;SDS011;9294;51.106;7.028;2023-05-07T01:53:03;1.10;;;1.10;;
18336;SDS011;9294;51.106;7.028;2023-05-07T01:55:30;1.10;;;1.10;;
18336;SDS011;9294;51.106;7.028;2023-05-07T01:57:58;1.17;;;1.17;;
18336;SDS011;9294;51.106;7.028;2023-05-07T02:00:25;0.80;;;0.80;;
18336;SDS011;9294;51.106;7.028;2023-05-07T02:02:52;1.13;;;1.13;;
18336;SDS011;9294;51.106;7.028;2023-05-07T02:05:18;1.83;;;1.10;;
18336;SDS011;9294;51.106;7.028;2023-05-07T02:07:46;1.23;;;1.23;;
18336;SDS011;9294;51.106;7.028;2023-05-07T02:10:12;0.90;;;0.90;;
18336;SDS011;9294;51.106;7.028;2023-05-07T02:12:39;1.08;;;1.08;;
18336;SDS011;9294;51.106;7.028;2023-05-07T02:15:07;1.00;;;1.00;;
18336;SDS011;9294;51.106;7.028;2023-05-07T02:17:35;1.02;;;1.02;;
18336;SDS011;9294;51.106;7.028;2023-05-07T02:20:02;1.10;;;1.10;;
18336;SDS011;9294;51.106;7.028;2023-05-07T02:22:29;1.15;;;1.15;;
18336;SDS011;9294;51.106;7.028;2023-05-07T02:24:56;1.05;;;1.05;;
18336;SDS011;9294;51.106;7.028;2023-05-07T02:27:24;1.23;;;1.23;;
18336;SDS011;9294;51.106;7.028;2023-05-07T02:29:51;1.40;;;1.30;;
18336;SDS011;9294;51.106;7.028;2023-05-07T02:32:19;1.20;;;1.20;;
18336;SDS011;9294;51.106;7.028;2023-05-07T02:34:49;1.15;;;1.15;;
18336;SDS011;9294;51.106;7.028;2023-05-07T02:37:17;1.00;;;1.00;;
18336;SDS011;9294;51.106;7.028;2023-05-07T02:39:43;1.27;;;1.20;;
18336;SDS011;9294;51.106;7.028;2023-05-07T02:42:10;1.00;;;1.00;;
18336;SDS011;9294;51.106;7.028;2023-05-07T02:44:37;0.90;;;0.90;;
18336;SDS011;9294;51.106;7.028;2023-05-07T02:47:04;0.90;;;0.90;;
18336;SDS011;9294;51.106;7.028;2023-05-07T02:49:34;0.98;;;0.98;;
18336;SDS011;9294;51.106;7.028;2023-05-07T02:52:01;0.88;;;0.88;;
18336;SDS011;9294;51.106;7.028;2023-05-07T02:54:28;1.00;;;1.00;;
18336;SDS011;9294;51.106;7.028;2023-05-07T02:56:55;1.20;;;1.20;;
18336;SDS011;9294;51.106;7.028;2023-05-07T02:59:22;0.90;;;0.90;;
18336;SDS011;9294;51.106;7.028;2023-05-07T03:01:50;1.17;;;1.17;;
18336;SDS011;9294;51.106;7.028;2023-05-07T03:04:16;1.00;;;1.00;;
18336;SDS011;9294;51.106;7.028;2023-05-07T03:06:44;1.10;;;1.10;;
18336;SDS011;9294;51.106;7.028;2023-05-07T03:09:11;1.00;;;1.00;;
18336;SDS011;9294;51.106;7.028;2023-05-07T03:11:38;1.10;;;1.10;;
18336;SDS011;9294;51.106;7.028;2023-05-07T03:14:05;1.13;;;1.13;;
18336;SDS011;9294;51.106;7.028;2023-05-07T03:16:31;1.15;;;1.10;;
18336;SDS011;9294;51.106;7.028;2023-05-07T03:18:58;0.80;;;0.80;;
18336;SDS011;9294;51.106;7.028;2023-05-07T03:21:25;1.20;;;1.20;;
18336;SDS011;9294;51.106;7.028;2023-05-07T03:23:53;1.08;;;1.08;;
18336;SDS011;9294;51.106;7.028;2023-05-07T03:26:20;1.00;;;1.00;;
18336;SDS011;9294;51.106;7.028;2023-05-07T03:28:47;1.17;;;1.17;;
18336;SDS011;9294;51.106;7.028;2023-05-07T03:31:14;0.90;;;0.90;;
18336;SDS011;9294;51.106;7.028;2023-05-07T03:33:49;1.15;;;1.15;;
18336;SDS011;9294;51.106;7.028;2023-05-07T03:36:17;1.02;;;1.02;;
18336;SDS011;9294;51.106;7.028;2023-05-07T03:38:43;1.10;;;1.10;;
18336;SDS011;9294;51.106;7.028;2023-05-07T03:41:11;1.10;;;1.10;;
18336;SDS011;9294;51.106;7.028;2023-05-07T03:43:38;1.33;;;1.33;;
18336;SDS011;9294;51.106;7.028;2023-05-07T03:46:05;1.27;;;1.27;;
18336;SDS011;9294;51.106;7.028;2023-05-07T03:48:32;1.13;;;1.13;;
18336;SDS011;9294;51.106;7.028;2023-05-07T03:50:59;1.00;;;1.00;;
18336;SDS011;9294;51.106;7.028;2023-05-07T03:53:26;1.00;;;1.00;;
18336;SDS011;9294;51.106;7.028;2023-05-07T03:55:52;1.10;;;1.10;;
18336;SDS011;9294;51.106;7.028;2023-05-07T03:58:20;1.10;;;1.10;;
18336;SDS011;9294;51.106;7.028;2023-05-07T04:00:47;1.00;;;1.00;;
18336;SDS011;9294;51.106;7.028;2023-05-07T04:03:14;1.85;;;1.10;;
18336;SDS011;9294;51.106;7.028;2023-05-07T04:05:41;1.20;;;1.20;;
18336;SDS011;9294;51.106;7.028;2023-05-07T04:08:08;1.20;;;1.20;;
18336;SDS011;9294;51.106;7.028;2023-05-07T04:10:35;0.98;;;0.98;;
18336;SDS011;9294;51.106;7.028;2023-05-07T04:13:02;1.08;;;1.08;;
18336;SDS011;9294;51.106;7.028;2023-05-07T04:15:30;1.27;;;1.27;;
18336;SDS011;9294;51.106;7.028;2023-05-07T04:17:57;1.20;;;1.20;;
18336;SDS011;9294;51.106;7.028;2023-05-07T04:20:24;1.10;;;1.10;;
18336;SDS011;9294;51.106;7.028;2023-05-07T04:22:51;1.10;;;1.10;;
18336;SDS011;9294;51.106;7.028;2023-05-07T04:25:17;1.02;;;1.02;;
18336;SDS011;9294;51.106;7.028;2023-05-07T04:27:44;0.80;;;0.80;;
18336;SDS011;9294;51.106;7.028;2023-05-07T04:30:12;1.08;;;1.08;;
18336;SDS011;9294;51.106;7.028;2023-05-07T04:32:40;0.88;;;0.88;;
18336;SDS011;9294;51.106;7.028;2023-05-07T04:35:07;1.00;;;1.00;;
18336;SDS011;9294;51.106;7.028;2023-05-07T04:37:34;1.00;;;1.00;;
18336;SDS011;9294;51.106;7.028;2023-05-07T04:40:01;0.90;;;0.90;;
18336;SDS011;9294;51.106;7.028;2023-05-07T04:42:28;1.08;;;1.08;;
18336;SDS011;9294;51.106;7.028;2023-05-07T04:44:56;0.75;;;0.75;;
18336;SDS011;9294;51.106;7.028;2023-05-07T04:47:22;0.98;;;0.98;;
18336;SDS011;9294;51.106;7.028;2023-05-07T04:49:51;1.20;;;1.20;;
18336;SDS011;9294;51.106;7.028;2023-05-07T04:52:17;1.00;;;1.00;;
18336;SDS011;9294;51.106;7.028;2023-05-07T04:54:45;0.90;;;0.90;;
18336;SDS011;9294;51.106;7.028;2023-05-07T04:57:11;0.90;;;0.90;;
18336;SDS011;9294;51.106;7.028;2023-05-07T04:59:38;1.30;;;1.30;;
18336;SDS011;9294;51.106;7.028;2023-05-07T05:02:05;1.05;;;1.05;;
18336;SDS011;9294;51.106;7.028;2023-05-07T05:04:32;0.90;;;0.90;;
18336;SDS011;9294;51.106;7.028;2023-05-07T05:07:00;1.10;;;1.10;;
18336;SDS011;9294;51.106;7.028;2023-05-07T05:09:28;0.90;;;0.90;;
18336;SDS011;9294;51.106;7.028;2023-05-07T05:11:55;1.10;;;1.10;;
18336;SDS011;9294;51.106;7.028;2023-05-07T05:14:22;1.00;;;1.00;;
18336;SDS011;9294;51.106;7.028;2023-05-07T05:16:49;1.05;;;1.05;;
18336;SDS011;9294;51.106;7.028;2023-05-07T05:19:16;1.05;;;1.05;;
18336;SDS011;9294;51.106;7.028;2023-05-07T05:21:42;1.08;;;1.08;;
18336;SDS011;9294;51.106;7.028;2023-05-07T05:24:11;1.05;;;1.05;;
18336;SDS011;9294;51.106;7.028;2023-05-07T05:26:38;1.50;;;1.40;;
18336;SDS011;9294;51.106;7.028;2023-05-07T05:29:05;1.27;;;1.27;;
18336;SDS011;9294;51.106;7.028;2023-05-07T05:31:32;1.17;;;1.17;;
18336;SDS011;9294;51.106;7.028;2023-05-07T05:33:59;0.98;;;0.98;;
18336;SDS011;9294;51.106;7.028;2023-05-07T05:36:26;1.00;;;1.00;;
18336;SDS011;9294;51.106;7.028;2023-05-07T05:38:53;0.90;;;0.90;;
18336;SDS011;9294;51.106;7.028;2023-05-07T05:41:21;0.80;;;0.80;;
18336;SDS011;9294;51.106;7.028;2023-05-07T05:43:48;1.33;;;1.17;;
18336;SDS011;9294;51.106;7.028;2023-05-07T05:46:15;1.08;;;1.08;;
18336;SDS011;9294;51.106;7.028;2023-05-07T05:48:41;1.38;;;1.20;;
18336;SDS011;9294;51.106;7.028;2023-05-07T05:51:08;4.43;;;1.58;;
18336;SDS011;9294;51.106;7.028;2023-05-07T05:53:35;2.92;;;1.27;;
18336;SDS011;9294;51.106;7.028;2023-05-07T05:56:02;1.13;;;1.10;;
18336;SDS011;9294;51.106;7.028;2023-05-07T05:58:31;0.90;;;0.90;;
18336;SDS011;9294;51.106;7.028;2023-05-07T06:00:58;1.33;;;0.80;;
18336;SDS011;9294;51.106;7.028;2023-05-07T06:03:25;1.00;;;0.98;;
18336;SDS011;9294;51.106;7.028;2023-05-07T06:05:52;4.20;;;0.90;;
18336;SDS011;9294;51.106;7.028;2023-05-07T06:08:18;1.70;;;1.40;;
18336;SDS011;9294;51.106;7.028;2023-05-07T06:10:45;1.65;;;1.40;;
18336;SDS011;9294;51.106;7.028;2023-05-07T06:13:12;1.20;;;1.20;;
18336;SDS011;9294;51.106;7.028;2023-05-07T06:15:40;1.23;;;1.23;;
18336;SDS011;9294;51.106;7.028;2023-05-07T06:18:07;2.25;;;1.33;;
18336;SDS011;9294;51.106;7.028;2023-05-07T06:20:33;2.00;;;1.23;;
18336;SDS011;9294;51.106;7.028;2023-05-07T06:23:00;1.13;;;1.13;;
18336;SDS011;9294;51.106;7.028;2023-05-07T06:25:27;1.65;;;1.10;;
18336;SDS011;9294;51.106;7.028;2023-05-07T06:27:54;1.45;;;1.38;;
18336;SDS011;9294;51.106;7.028;2023-05-07T06:30:21;1.25;;;1.15;;
18336;SDS011;9294;51.106;7.028;2023-05-07T06:32:49;1.25;;;1.17;;
18336;SDS011;9294;51.106;7.028;2023-05-07T06:35:15;2.22;;;1.23;;
18336;SDS011;9294;51.106;7.028;2023-05-07T06:37:42;1.50;;;1.40;;
18336;SDS011;9294;51.106;7.028;2023-05-07T06:40:09;1.75;;;1.27;;
18336;SDS011;9294;51.106;7.028;2023-05-07T06:42:36;1.20;;;1.20;;
18336;SDS011;9294;51.106;7.028;2023-05-07T06:45:04;7.97;;;1.30;;
18336;SDS011;9294;51.106;7.028;2023-05-07T06:47:31;1.17;;;1.08;;
18336;SDS011;9294;51.106;7.028;2023-05-07T06:49:59;1.63;;;1.55;;
18336;SDS011;9294;51.106;7.028;2023-05-07T06:52:26;1.08;;;1.08;;
18336;SDS011;9294;51.106;7.028;2023-05-07T06:54:53;3.10;;;1.80;;
18336;SDS011;9294;51.106;7.028;2023-05-07T06:57:20;2.67;;;1.35;;
18336;SDS011;9294;51.106;7.028;2023-05-07T06:59:47;2.08;;;1.15;;
18336;SDS011;9294;51.106;7.028;2023-05-07T07:02:13;3.67;;;1.50;;
18336;SDS011;9294;51.106;7.028;2023-05-07T07:04:40;2.45;;;1.60;;
18336;SDS011;9294;51.106;7.028;2023-05-07T07:07:08;1.20;;;1.20;;
18336;SDS011;9294;51.106;7.028;2023-05-07T07:09:35;4.55;;;1.25;;
18336;SDS011;9294;51.106;7.028;2023-05-07T07:12:02;3.92;;;1.30;;
18336;SDS011;9294;51.106;7.028;2023-05-07T07:14:29;2.35;;;2.13;;
18336;SDS011;9294;51.106;7.028;2023-05-07T07:16:56;2.15;;;1.88;;
18336;SDS011;9294;51.106;7.028;2023-05-07T07:19:23;1.95;;;1.52;;
18336;SDS011;9294;51.106;7.028;2023-05-07T07:21:50;1.75;;;1.20;;
18336;SDS011;9294;51.106;7.028;2023-05-07T07:24:18;1.42;;;1.33;;
18336;SDS011;9294;51.106;7.028;2023-05-07T07:26:46;3.63;;;1.58;;
18336;SDS011;9294;51.106;7.028;2023-05-07T07:29:13;5.10;;;1.70;;
18336;SDS011;9294;51.106;7.028;2023-05-07T07:31:40;2.28;;;1.60;;
18336;SDS011;9294;51.106;7.028;2023-05-07T07:34:06;2.58;;;1.90;;
18336;SDS011;9294;51.106;7.028;2023-05-07T07:36:33;3.63;;;2.08;;
18336;SDS011;9294;51.106;7.028;2023-05-07T07:39:00;2.45;;;1.83;;
18336;SDS011;9294;51.106;7.028;2023-05-07T07:41:28;7.05;;;2.05;;
18336;SDS011;9294;51.106;7.028;2023-05-07T07:43:55;7.60;;;2.10;;
18336;SDS011;9294;51.106;7.028;2023-05-07T07:46:22;6.32;;;2.70;;
18336;SDS011;9294;51.106;7.028;2023-05-07T07:48:48;4.18;;;2.03;;
18336;SDS011;9294;51.106;7.028;2023-05-07T07:51:16;6.72;;;3.35;;
18336;SDS011;9294;51.106;7.028;2023-05-07T07:53:43;5.85;;;2.90;;
18336;SDS011;9294;51.106;7.028;2023-05-07T07:56:10;4.50;;;2.20;;
18336;SDS011;9294;51.106;7.028;2023-05-07T07:58:38;8.75;;;3.50;;
18336;SDS011;9294;51.106;7.028;2023-05-07T08:01:05;6.13;;;2.83;;
18336;SDS011;9294;51.106;7.028;2023-05-07T08:03:31;6.15;;;2.70;;
18336;SDS011;9294;51.106;7.028;2023-05-07T08:05:58;3.78;;;2.60;;
18336;SDS011;9294;51.106;7.028;2023-05-07T08:08:25;6.32;;;2.88;;
18336;SDS011;9294;51.106;7.028;2023-05-07T08:10:52;9.82;;;3.10;;
18336;SDS011;9294;51.106;7.028;2023-05-07T08:13:19;3.08;;;2.28;;
18336;SDS011;9294;51.106;7.028;2023-05-07T08:15:47;5.93;;;2.85;;
18336;SDS011;9294;51.106;7.028;2023-05-07T08:18:14;4.63;;;2.22;;
18336;SDS011;9294;51.106;7.028;2023-05-07T08:20:41;3.60;;;2.13;;
18336;SDS011;9294;51.106;7.028;2023-05-07T08:23:07;4.57;;;2.78;;
18336;SDS011;9294;51.106;7.028;2023-05-07T08:25:34;2.72;;;2.10;;
18336;SDS011;9294;51.106;7.028;2023-05-07T08:28:02;3.08;;;2.45;;
18336;SDS011;9294;51.106;7.028;2023-05-07T08:30:29;3.70;;;2.85;;
18336;SDS011;9294;51.106;7.028;2023-05-07T08:32:57;3.97;;;2.38;;
18336;SDS011;9294;51.106;7.028;2023-05-07T08:35:23;3.97;;;2.60;;
18336;SDS011;9294;51.106;7.028;2023-05-07T08:37:52;3.45;;;2.30;;
18336;SDS011;9294;51.106;7.028;2023-05-07T08:40:19;6.88;;;2.78;;
18336;SDS011;9294;51.106;7.028;2023-05-07T08:42:48;6.75;;;2.17;;
18336;SDS011;9294;51.106;7.028;2023-05-07T08:45:16;5.95;;;2.45;;
18336;SDS011;9294;51.106;7.028;2023-05-07T08:47:46;6.35;;;2.63;;
18336;SDS011;9294;51.106;7.028;2023-05-07T08:50:19;3.10;;;2.67;;
18336;SDS011;9294;51.106;7.028;2023-05-07T08:52:47;7.43;;;2.47;;
18336;SDS011;9294;51.106;7.028;2023-05-07T08:55:14;6.03;;;2.67;;
18336;SDS011;9294;51.106;7.028;2023-05-07T08:57:41;3.08;;;2.00;;
18336;SDS011;9294;51.106;7.028;2023-05-07T09:00:08;6.10;;;2.42;;
18336;SDS011;9294;51.106;7.028;2023-05-07T09:02:36;4.38;;;2.47;;
18336;SDS011;9294;51.106;7.028;2023-05-07T09:05:03;4.70;;;2.15;;
18336;SDS011;9294;51.106;7.028;2023-05-07T09:07:31;4.05;;;2.92;;
18336;SDS011;9294;51.106;7.028;2023-05-07T09:09:58;3.92;;;2.10;;
18336;SDS011;9294;51.106;7.028;2023-05-07T09:12:28;5.78;;;2.67;;
18336;SDS011;9294;51.106;7.028;2023-05-07T09:14:55;6.85;;;2.50;;
18336;SDS011;9294;51.106;7.028;2023-05-07T09:17:22;4.28;;;2.22;;
18336;SDS011;9294;51.106;7.028;2023-05-07T09:19:49;3.80;;;2.40;;
18336;SDS011;9294;51.106;7.028;2023-05-07T09:22:16;2.08;;;1.98;;
18336;SDS011;9294;51.106;7.028;2023-05-07T09:24:47;2.10;;;1.85;;
18336;SDS011;9294;51.106;7.028;2023-05-07T09:27:15;2.65;;;2.00;;
18336;SDS011;9294;51.106;7.028;2023-05-07T09:29:42;3.08;;;2.05;;
18336;SDS011;9294;51.106;7.028;2023-05-07T09:32:09;2.10;;;2.00;;
18336;SDS011;9294;51.106;7.028;2023-05-07T09:34:36;3.95;;;1.80;;
18336;SDS011;9294;51.106;7.028;2023-05-07T09:37:04;2.28;;;1.83;;
18336;SDS011;9294;51.106;7.028;2023-05-07T09:39:38;3.95;;;1.63;;
18336;SDS011;9294;51.106;7.028;2023-05-07T09:42:07;1.80;;;1.63;;
18336;SDS011;9294;51.106;7.028;2023-05-07T09:44:34;2.83;;;2.00;;
18336;SDS011;9294;51.106;7.028;2023-05-07T09:47:01;3.63;;;1.92;;
18336;SDS011;9294;51.106;7.028;2023-05-07T09:49:33;4.18;;;2.80;;
18336;SDS011;9294;51.106;7.028;2023-05-07T09:52:01;3.83;;;2.30;;
18336;SDS011;9294;51.106;7.028;2023-05-07T09:54:31;2.97;;;2.67;;
18336;SDS011;9294;51.106;7.028;2023-05-07T09:56:59;3.13;;;2.13;;
18336;SDS011;9294;51.106;7.028;2023-05-07T09:59:29;8.00;;;3.08;;
18336;SDS011;9294;51.106;7.028;2023-05-07T10:01:57;2.85;;;2.55;;
18336;SDS011;9294;51.106;7.028;2023-05-07T10:04:25;6.70;;;2.78;;
18336;SDS011;9294;51.106;7.028;2023-05-07T10:06:52;5.00;;;2.58;;
18336;SDS011;9294;51.106;7.028;2023-05-07T10:09:20;10.48;;;4.25;;
18336;SDS011;9294;51.106;7.028;2023-05-07T10:11:48;14.60;;;6.07;;
18336;SDS011;9294;51.106;7.028;2023-05-07T10:14:15;19.95;;;8.18;;
18336;SDS011;9294;51.106;7.028;2023-05-07T10:16:44;22.00;;;9.88;;
18336;SDS011;9294;51.106;7.028;2023-05-07T10:19:12;17.52;;;8.35;;
18336;SDS011;9294;51.106;7.028;2023-05-07T10:21:42;20.02;;;8.15;;
18336;SDS011;9294;51.106;7.028;2023-05-07T10:24:16;18.20;;;8.60;;
18336;SDS011;9294;51.106;7.028;2023-05-07T10:26:48;15.88;;;6.85;;
18336;SDS011;9294;51.106;7.028;2023-05-07T10:29:18;12.70;;;6.72;;
18336;SDS011;9294;51.106;7.028;2023-05-07T10:31:54;19.45;;;7.20;;
18336;SDS011;9294;51.106;7.028;2023-05-07T10:34:26;14.65;;;6.47;;
18336;SDS011;9294;51.106;7.028;2023-05-07T10:36:56;13.20;;;7.38;;
18336;SDS011;9294;51.106;7.028;2023-05-07T10:39:23;12.00;;;6.82;;
18336;SDS011;9294;51.106;7.028;2023-05-07T10:41:50;12.48;;;6.75;;
18336;SDS011;9294;51.106;7.028;2023-05-07T10:44:26;11.48;;;5.97;;
18336;SDS011;9294;51.106;7.028;2023-05-07T10:47:04;12.15;;;6.45;;
18336;SDS011;9294;51.106;7.028;2023-05-07T10:49:34;15.50;;;6.72;;
18336;SDS011;9294;51.106;7.028;2023-05-07T10:52:13;10.60;;;5.38;;
18336;SDS011;9294;51.106;7.028;2023-05-07T10:54:41;14.02;;;7.45;;
18336;SDS011;9294;51.106;7.028;2023-05-07T11:00:00;12.50;;;5.85;;
18336;SDS011;9294;51.106;7.028;2023-05-07T11:05:32;12.70;;;5.40;;
18336;SDS011;9294;51.106;7.028;2023-05-07T11:07:59;12.10;;;5.63;;
18336;SDS011;9294;51.106;7.028;2023-05-07T11:13:15;12.45;;;5.78;;
18336;SDS011;9294;51.106;7.028;2023-05-07T11:15:43;11.73;;;5.57;;
18336;SDS011;9294;51.106;7.028;2023-05-07T11:18:13;11.75;;;6.63;;
18336;SDS011;9294;51.106;7.028;2023-05-07T11:20:53;9.40;;;5.20;;
18336;SDS011;9294;51.106;7.028;2023-05-07T11:26:42;7.70;;;4.55;;
18336;SDS011;9294;51.106;7.028;2023-05-07T11:29:14;8.82;;;5.43;;
18336;SDS011;9294;51.106;7.028;2023-05-07T11:31:41;8.20;;;4.97;;
18336;SDS011;9294;51.106;7.028;2023-05-07T11:34:10;9.30;;;4.57;;
18336;SDS011;9294;51.106;7.028;2023-05-07T11:36:41;10.52;;;5.75;;
18336;SDS011;9294;51.106;7.028;2023-05-07T11:39:25;8.75;;;4.70;;
18336;SDS011;9294;51.106;7.028;2023-05-07T11:41:53;10.23;;;5.35;;
18336;SDS011;9294;51.106;7.028;2023-05-07T11:44:20;9.75;;;5.10;;
18336;SDS011;9294;51.106;7.028;2023-05-07T11:46:47;7.38;;;5.15;;
18336;SDS011;9294;51.106;7.028;2023-05-07T11:49:16;8.23;;;4.88;;
18336;SDS011;9294;51.106;7.028;2023-05-07T11:51:43;7.63;;;4.90;;
18336;SDS011;9294;51.106;7.028;2023-05-07T11:54:11;8.23;;;4.47;;
18336;SDS011;9294;51.106;7.028;2023-05-07T11:56:41;8.52;;;4.75;;
18336;SDS011;9294;51.106;7.028;2023-05-07T11:59:09;6.35;;;4.10;;
18336;SDS011;9294;51.106;7.028;2023-05-07T12:01:36;8.25;;;4.68;;
18336;SDS011;9294;51.106;7.028;2023-05-07T12:04:04;8.65;;;5.07;;
18336;SDS011;9294;51.106;7.028;2023-05-07T12:06:35;10.23;;;5.32;;
18336;SDS011;9294;51.106;7.028;2023-05-07T12:09:02;5.68;;;4.50;;
18336;SDS011;9294;51.106;7.028;2023-05-07T12:11:30;5.50;;;4.50;;
18336;SDS011;9294;51.106;7.028;2023-05-07T12:13:56;6.78;;;4.25;;
18336;SDS011;9294;51.106;7.028;2023-05-07T12:16:23;8.32;;;4.55;;
18336;SDS011;9294;51.106;7.028;2023-05-07T12:18:51;8.00;;;4.57;;
18336;SDS011;9294;51.106;7.028;2023-05-07T12:21:19;8.70;;;4.18;;
18336;SDS011;9294;51.106;7.028;2023-05-07T12:23:48;7.38;;;4.40;;
18336;SDS011;9294;51.106;7.028;2023-05-07T12:26:15;5.80;;;4.30;;
18336;SDS011;9294;51.106;7.028;2023-05-07T12:28:42;6.97;;;5.05;;
18336;SDS011;9294;51.106;7.028;2023-05-07T12:31:08;6.40;;;4.57;;
18336;SDS011;9294;51.106;7.028;2023-05-07T12:33:35;8.98;;;4.95;;
18336;SDS011;9294;51.106;7.028;2023-05-07T12:36:03;5.85;;;4.15;;
18336;SDS011;9294;51.106;7.028;2023-05-07T12:38:36;6.18;;;3.80;;
18336;SDS011;9294;51.106;7.028;2023-05-07T12:41:06;6.10;;;3.70;;
18336;SDS011;9294;51.106;7.028;2023-05-07T12:43:34;5.47;;;4.15;;
18336;SDS011;9294;51.106;7.028;2023-05-07T12:46:03;5.95;;;3.92;;
18336;SDS011;9294;51.106;7.028;2023-05-07T12:48:30;7.97;;;4.55;;
18336;SDS011;9294;51.106;7.028;2023-05-07T12:50:58;7.32;;;4.32;;
18336;SDS011;9294;51.106;7.028;2023-05-07T12:53:26;5.50;;;4.20;;
18336;SDS011;9294;51.106;7.028;2023-05-07T12:55:54;4.10;;;3.65;;
18336;SDS011;9294;51.106;7.028;2023-05-07T12:58:24;8.02;;;4.35;;
18336;SDS011;9294;51.106;7.028;2023-05-07T13:00:52;7.53;;;4.40;;
18336;SDS011;9294;51.106;7.028;2023-05-07T13:03:23;5.60;;;4.25;;
18336;SDS011;9294;51.106;7.028;2023-05-07T13:05:51;8.10;;;4.38;;
18336;SDS011;9294;51.106;7.028;2023-05-07T13:08:23;7.57;;;3.45;;
18336;SDS011;9294;51.106;7.028;2023-05-07T13:10:54;5.28;;;3.90;;
18336;SDS011;9294;51.106;7.028;2023-05-07T13:13:20;6.55;;;4.22;;
18336;SDS011;9294;51.106;7.028;2023-05-07T13:15:48;7.13;;;4.35;;
18336;SDS011;9294;51.106;7.028;2023-05-07T13:18:15;7.20;;;4.00;;
18336;SDS011;9294;51.106;7.028;2023-05-07T13:20:42;6.05;;;3.70;;
18336;SDS011;9294;51.106;7.028;2023-05-07T13:23:09;4.10;;;3.65;;
18336;SDS011;9294;51.106;7.028;2023-05-07T13:25:36;6.93;;;4.25;;
18336;SDS011;9294;51.106;7.028;2023-05-07T13:28:03;5.63;;;4.00;;
18336;SDS011;9294;51.106;7.028;2023-05-07T13:30:30;5.85;;;3.92;;
18336;SDS011;9294;51.106;7.028;2023-05-07T13:32:58;5.53;;;3.85;;
18336;SDS011;9294;51.106;7.028;2023-05-07T13:35:25;8.40;;;4.30;;
18336;SDS011;9294;51.106;7.028;2023-05-07T13:37:52;6.30;;;4.05;;
18336;SDS011;9294;51.106;7.028;2023-05-07T13:40:19;4.88;;;4.05;;
18336;SDS011;9294;51.106;7.028;2023-05-07T13:42:46;5.75;;;4.47;;
18336;SDS011;9294;51.106;7.028;2023-05-07T13:45:13;5.97;;;3.53;;
18336;SDS011;9294;51.106;7.028;2023-05-07T13:47:40;6.18;;;3.83;;
18336;SDS011;9294;51.106;7.028;2023-05-07T13:50:09;4.63;;;3.85;;
18336;SDS011;9294;51.106;7.028;2023-05-07T13:52:38;4.32;;;3.40;;
18336;SDS011;9294;51.106;7.028;2023-05-07T13:55:05;6.75;;;3.58;;
18336;SDS011;9294;51.106;7.028;2023-05-07T13:57:33;6.05;;;3.60;;
18336;SDS011;9294;51.106;7.028;2023-05-07T14:00:00;6.72;;;3.90;;
18336;SDS011;9294;51.106;7.028;2023-05-07T14:02:27;6.13;;;3.78;;
18336;SDS011;9294;51.106;7.028;2023-05-07T14:04:53;3.33;;;3.00;;
18336;SDS011;9294;51.106;7.028;2023-05-07T14:07:22;4.72;;;3.97;;
18336;SDS011;9294;51.106;7.028;2023-05-07T14:09:48;3.90;;;3.53;;
18336;SDS011;9294;51.106;7.028;2023-05-07T14:12:15;7.07;;;3.30;;
18336;SDS011;9294;51.106;7.028;2023-05-07T14:14:42;5.10;;;3.65;;
18336;SDS011;9294;51.106;7.028;2023-05-07T14:17:10;4.95;;;3.33;;
18336;SDS011;9294;51.106;7.028;2023-05-07T14:19:37;7.63;;;3.72;;
18336;SDS011;9294;51.106;7.028;2023-05-07T14:22:04;5.55;;;3.08;;
18336;SDS011;9294;51.106;7.028;2023-05-07T14:24:32;3.80;;;3.20;;
18336;SDS011;9294;51.106;7.028;2023-05-07T14:26:59;4.90;;;3.05;;
18336;SDS011;9294;51.106;7.028;2023-05-07T14:29:26;5.03;;;3.53;;
18336;SDS011;9294;51.106;7.028;2023-05-07T14:31:53;9.23;;;4.05;;
18336;SDS011;9294;51.106;7.028;2023-05-07T14:34:20;6.78;;;3.50;;
18336;SDS011;9294;51.106;7.028;2023-05-07T14:36:47;6.57;;;3.80;;
18336;SDS011;9294;51.106;7.028;2023-05-07T14:39:14;6.68;;;4.40;;
18336;SDS011;9294;51.106;7.028;2023-05-07T14:41:42;4.05;;;3.50;;
18336;SDS011;9294;51.106;7.028;2023-05-07T14:44:08;6.20;;;3.88;;
18336;SDS011;9294;51.106;7.028;2023-05-07T14:46:35;6.65;;;3.90;;
18336;SDS011;9294;51.106;7.028;2023-05-07T14:49:02;9.10;;;4.93;;
18336;SDS011;9294;51.106;7.028;2023-05-07T14:51:29;6.28;;;4.40;;
18336;SDS011;9294;51.106;7.028;2023-05-07T14:53:57;7.78;;;4.50;;
18336;SDS011;9294;51.106;7.028;2023-05-07T14:56:25;6.65;;;3.90;;
18336;SDS011;9294;51.106;7.028;2023-05-07T14:58:53;9.57;;;4.60;;
18336;SDS011;9294;51.106;7.028;2023-05-07T15:01:20;8.93;;;4.68;;
18336;SDS011;9294;51.106;7.028;2023-05-07T15:03:47;7.07;;;4.40;;
18336;SDS011;9294;51.106;7.028;2023-05-07T15:06:14;7.93;;;4.60;;
18336;SDS011;9294;51.106;7.028;2023-05-07T15:08:40;9.05;;;5.35;;
18336;SDS011;9294;51.106;7.028;2023-05-07T15:11:07;10.27;;;4.53;;
18336;SDS011;9294;51.106;7.028;2023-05-07T15:13:34;8.48;;;4.45;;
18336;SDS011;9294;51.106;7.028;2023-05-07T15:16:03;9.82;;;4.75;;